Аэропорт: Львов имени Даниила Галицкого. Львов

ICAO: UKLL

METAR:
2020-10-19 15:30:00
UKLL 191530Z 25003MPS CAVOK 07/05 Q1023 R31/290055 NOSIG
METAR:
2020-10-19 11:04:00
TAF UKLL 191104Z 1912/2012 27005G11MPS 9999 BKN010 SCT017CB TEMPO 1912/1921 24005MPS 3000 -SHRA BKN007 BKN020CB BECMG 1921/1922 24003MPS BKN007 TEMPO 2002/2007 2100 BR SCT005